sensor_id;sensor_type;location;lat;lon;timestamp;noise_LAeq;noise_LA_min;noise_LA_max;noise_LA01;noise_LA95
45964;Laerm;31671;48.092;11.842;2023-04-09T00:02:23;28.92;27.45;30.63;;
45964;Laerm;31671;48.092;11.842;2023-04-09T00:04:48;28.87;27.54;30.13;;
45964;Laerm;31671;48.092;11.842;2023-04-09T00:07:14;28.80;27.48;30.14;;
45964;Laerm;31671;48.092;11.842;2023-04-09T00:09:40;28.82;27.53;30.38;;
45964;Laerm;31671;48.092;11.842;2023-04-09T00:12:05;28.95;27.45;31.12;;
45964;Laerm;31671;48.092;11.842;2023-04-09T00:14:31;28.91;27.64;30.05;;
45964;Laerm;31671;48.092;11.842;2023-04-09T00:16:57;28.87;27.32;30.12;;
45964;Laerm;31671;48.092;11.842;2023-04-09T00:19:22;28.86;27.38;30.32;;
45964;Laerm;31671;48.092;11.842;2023-04-09T00:21:48;28.86;27.59;30.10;;
45964;Laerm;31671;48.092;11.842;2023-04-09T00:24:14;28.86;27.56;32.37;;
45964;Laerm;31671;48.092;11.842;2023-04-09T00:26:39;28.83;27.58;30.83;;
45964;Laerm;31671;48.092;11.842;2023-04-09T00:29:05;28.89;27.59;30.86;;
45964;Laerm;31671;48.092;11.842;2023-04-09T00:31:31;28.90;27.35;30.41;;
45964;Laerm;31671;48.092;11.842;2023-04-09T00:33:56;28.96;27.53;30.72;;
45964;Laerm;31671;48.092;11.842;2023-04-09T00:36:22;28.89;27.68;30.73;;
45964;Laerm;31671;48.092;11.842;2023-04-09T00:38:49;28.87;27.57;30.13;;
45964;Laerm;31671;48.092;11.842;2023-04-09T00:41:15;28.90;27.36;30.02;;
45964;Laerm;31671;48.092;11.842;2023-04-09T00:43:41;28.91;27.59;30.20;;
45964;Laerm;31671;48.092;11.842;2023-04-09T00:46:07;29.27;27.17;31.97;;
45964;Laerm;31671;48.092;11.842;2023-04-09T00:48:33;28.89;27.48;30.18;;
45964;Laerm;31671;48.092;11.842;2023-04-09T00:50:58;28.88;27.20;30.21;;
45964;Laerm;31671;48.092;11.842;2023-04-09T00:53:24;28.90;27.53;30.13;;
45964;Laerm;31671;48.092;11.842;2023-04-09T00:55:51;29.52;27.71;35.71;;
45964;Laerm;31671;48.092;11.842;2023-04-09T00:58:17;29.00;27.58;30.39;;
45964;Laerm;31671;48.092;11.842;2023-04-09T01:00:42;29.28;27.61;38.28;;
45964;Laerm;31671;48.092;11.842;2023-04-09T01:03:08;29.43;27.60;34.29;;
45964;Laerm;31671;48.092;11.842;2023-04-09T01:05:53;28.86;27.26;31.19;;
45964;Laerm;31671;48.092;11.842;2023-04-09T01:08:32;28.94;27.62;30.36;;
45964;Laerm;31671;48.092;11.842;2023-04-09T01:11:03;29.23;27.50;32.36;;
45964;Laerm;31671;48.092;11.842;2023-04-09T01:13:37;28.95;27.58;30.43;;
45964;Laerm;31671;48.092;11.842;2023-04-09T01:16:04;28.88;27.53;30.26;;
45964;Laerm;31671;48.092;11.842;2023-04-09T01:21:00;28.91;27.37;30.28;;
45964;Laerm;31671;48.092;11.842;2023-04-09T01:26:02;28.97;27.17;30.46;;
45964;Laerm;31671;48.092;11.842;2023-04-09T01:28:43;28.96;27.38;30.23;;
45964;Laerm;31671;48.092;11.842;2023-04-09T01:31:10;29.01;27.69;31.73;;
45964;Laerm;31671;48.092;11.842;2023-04-09T01:33:37;29.21;27.55;32.33;;
45964;Laerm;31671;48.092;11.842;2023-04-09T01:36:03;28.93;27.54;30.18;;
45964;Laerm;31671;48.092;11.842;2023-04-09T01:38:29;29.28;27.54;31.70;;
45964;Laerm;31671;48.092;11.842;2023-04-09T01:40:55;28.93;27.51;30.26;;
45964;Laerm;31671;48.092;11.842;2023-04-09T01:43:21;28.92;27.69;30.25;;
45964;Laerm;31671;48.092;11.842;2023-04-09T01:45:48;28.94;27.42;30.22;;
45964;Laerm;31671;48.092;11.842;2023-04-09T01:48:14;28.94;27.56;30.11;;
45964;Laerm;31671;48.092;11.842;2023-04-09T01:50:40;28.97;27.69;30.11;;
45964;Laerm;31671;48.092;11.842;2023-04-09T01:53:06;28.88;27.44;30.13;;
45964;Laerm;31671;48.092;11.842;2023-04-09T01:55:32;28.92;27.50;30.17;;
45964;Laerm;31671;48.092;11.842;2023-04-09T01:57:58;28.96;27.64;30.43;;
45964;Laerm;31671;48.092;11.842;2023-04-09T02:00:24;28.98;27.77;30.28;;
45964;Laerm;31671;48.092;11.842;2023-04-09T02:02:58;28.96;27.59;30.80;;
45964;Laerm;31671;48.092;11.842;2023-04-09T02:05:27;28.95;27.75;30.44;;
45964;Laerm;31671;48.092;11.842;2023-04-09T02:07:55;28.99;27.57;30.33;;
45964;Laerm;31671;48.092;11.842;2023-04-09T02:13:05;29.49;27.54;33.82;;
45964;Laerm;31671;48.092;11.842;2023-04-09T02:15:35;28.93;27.53;30.32;;
45964;Laerm;31671;48.092;11.842;2023-04-09T02:18:01;28.87;27.57;30.07;;
45964;Laerm;31671;48.092;11.842;2023-04-09T02:20:28;28.93;27.70;30.23;;
45964;Laerm;31671;48.092;11.842;2023-04-09T02:22:53;28.93;27.70;30.11;;
45964;Laerm;31671;48.092;11.842;2023-04-09T02:25:20;28.93;27.53;30.70;;
45964;Laerm;31671;48.092;11.842;2023-04-09T02:27:45;29.01;27.69;30.20;;
45964;Laerm;31671;48.092;11.842;2023-04-09T02:30:11;28.99;27.81;30.29;;
45964;Laerm;31671;48.092;11.842;2023-04-09T02:32:37;28.95;27.72;30.16;;
45964;Laerm;31671;48.092;11.842;2023-04-09T02:35:02;28.87;27.54;30.18;;
45964;Laerm;31671;48.092;11.842;2023-04-09T02:37:28;29.03;27.60;32.08;;
45964;Laerm;31671;48.092;11.842;2023-04-09T02:39:54;28.89;27.43;30.22;;
45964;Laerm;31671;48.092;11.842;2023-04-09T02:42:19;29.01;27.68;30.37;;
45964;Laerm;31671;48.092;11.842;2023-04-09T02:44:45;29.07;27.81;30.22;;
45964;Laerm;31671;48.092;11.842;2023-04-09T02:47:12;29.08;27.53;30.89;;
45964;Laerm;31671;48.092;11.842;2023-04-09T02:49:38;29.08;27.73;30.40;;
45964;Laerm;31671;48.092;11.842;2023-04-09T02:52:03;29.00;27.64;30.30;;
45964;Laerm;31671;48.092;11.842;2023-04-09T02:54:29;29.05;27.72;30.44;;
45964;Laerm;31671;48.092;11.842;2023-04-09T02:56:55;29.00;27.60;30.18;;
45964;Laerm;31671;48.092;11.842;2023-04-09T02:59:20;28.97;27.62;30.16;;
45964;Laerm;31671;48.092;11.842;2023-04-09T03:01:46;28.94;27.50;30.28;;
45964;Laerm;31671;48.092;11.842;2023-04-09T03:04:12;29.02;27.57;30.36;;
45964;Laerm;31671;48.092;11.842;2023-04-09T03:06:37;29.02;27.70;30.32;;
45964;Laerm;31671;48.092;11.842;2023-04-09T03:09:03;28.96;27.63;30.36;;
45964;Laerm;31671;48.092;11.842;2023-04-09T03:11:29;29.00;27.69;30.35;;
45964;Laerm;31671;48.092;11.842;2023-04-09T03:13:55;28.94;27.54;30.29;;
45964;Laerm;31671;48.092;11.842;2023-04-09T03:16:23;28.98;27.72;30.12;;
45964;Laerm;31671;48.092;11.842;2023-04-09T03:18:48;28.97;27.64;30.08;;
45964;Laerm;31671;48.092;11.842;2023-04-09T03:21:14;28.90;27.54;30.25;;
45964;Laerm;31671;48.092;11.842;2023-04-09T03:23:44;28.94;27.57;30.15;;
45964;Laerm;31671;48.092;11.842;2023-04-09T03:26:10;28.94;27.64;30.20;;
45964;Laerm;31671;48.092;11.842;2023-04-09T03:28:47;28.86;27.37;30.23;;
45964;Laerm;31671;48.092;11.842;2023-04-09T03:31:13;28.95;27.68;30.13;;
45964;Laerm;31671;48.092;11.842;2023-04-09T03:33:40;29.04;27.79;32.84;;
45964;Laerm;31671;48.092;11.842;2023-04-09T03:36:06;29.00;27.54;30.14;;
45964;Laerm;31671;48.092;11.842;2023-04-09T03:38:42;28.93;27.68;30.92;;
45964;Laerm;31671;48.092;11.842;2023-04-09T03:41:20;28.97;27.50;30.30;;
45964;Laerm;31671;48.092;11.842;2023-04-09T03:43:46;29.14;27.77;32.50;;
45964;Laerm;31671;48.092;11.842;2023-04-09T03:46:14;28.93;27.66;30.29;;
45964;Laerm;31671;48.092;11.842;2023-04-09T03:48:42;29.01;27.54;30.31;;
45964;Laerm;31671;48.092;11.842;2023-04-09T03:51:12;29.11;27.78;31.46;;
45964;Laerm;31671;48.092;11.842;2023-04-09T03:53:39;29.15;27.67;32.44;;
45964;Laerm;31671;48.092;11.842;2023-04-09T03:56:05;29.23;27.74;32.39;;
45964;Laerm;31671;48.092;11.842;2023-04-09T03:58:32;29.17;27.76;31.92;;
45964;Laerm;31671;48.092;11.842;2023-04-09T04:00:59;29.14;27.75;35.32;;
45964;Laerm;31671;48.092;11.842;2023-04-09T04:03:36;29.16;27.61;31.83;;
45964;Laerm;31671;48.092;11.842;2023-04-09T04:06:32;29.07;27.71;37.78;;
45964;Laerm;31671;48.092;11.842;2023-04-09T04:09:18;29.02;27.62;30.99;;
45964;Laerm;31671;48.092;11.842;2023-04-09T04:11:49;28.97;27.57;31.14;;
45964;Laerm;31671;48.092;11.842;2023-04-09T04:14:16;29.23;27.74;34.06;;
45964;Laerm;31671;48.092;11.842;2023-04-09T04:16:44;29.11;27.71;35.10;;
45964;Laerm;31671;48.092;11.842;2023-04-09T04:19:14;29.15;27.76;31.99;;
45964;Laerm;31671;48.092;11.842;2023-04-09T04:21:44;29.05;27.64;30.74;;
45964;Laerm;31671;48.092;11.842;2023-04-09T04:24:10;29.04;27.47;30.60;;
45964;Laerm;31671;48.092;11.842;2023-04-09T04:26:35;29.09;27.59;31.44;;
45964;Laerm;31671;48.092;11.842;2023-04-09T04:29:02;29.06;27.66;31.11;;
45964;Laerm;31671;48.092;11.842;2023-04-09T04:31:50;28.91;27.55;30.26;;
45964;Laerm;31671;48.092;11.842;2023-04-09T04:34:19;28.88;27.43;30.17;;
45964;Laerm;31671;48.092;11.842;2023-04-09T04:36:49;49.10;27.41;85.30;;
45964;Laerm;31671;48.092;11.842;2023-04-09T04:39:15;28.81;27.60;30.07;;
45964;Laerm;31671;48.092;11.842;2023-04-09T04:41:57;28.85;27.52;30.98;;
45964;Laerm;31671;48.092;11.842;2023-04-09T04:44:26;28.89;27.60;32.40;;
45964;Laerm;31671;48.092;11.842;2023-04-09T04:46:59;28.98;27.55;38.57;;
45964;Laerm;31671;48.092;11.842;2023-04-09T04:49:25;28.93;27.55;30.65;;
45964;Laerm;31671;48.092;11.842;2023-04-09T04:51:51;28.88;27.36;37.58;;
45964;Laerm;31671;48.092;11.842;2023-04-09T04:54:16;28.87;27.23;32.31;;
45964;Laerm;31671;48.092;11.842;2023-04-09T04:56:50;28.98;27.39;33.85;;
45964;Laerm;31671;48.092;11.842;2023-04-09T04:59:38;28.94;27.41;32.77;;
45964;Laerm;31671;48.092;11.842;2023-04-09T05:02:06;28.93;27.41;31.41;;
45964;Laerm;31671;48.092;11.842;2023-04-09T05:04:38;28.95;27.47;31.55;;
45964;Laerm;31671;48.092;11.842;2023-04-09T05:07:06;28.96;27.44;35.13;;
45964;Laerm;31671;48.092;11.842;2023-04-09T05:09:32;29.09;27.49;32.72;;
45964;Laerm;31671;48.092;11.842;2023-04-09T05:12:02;28.89;27.37;33.29;;
45964;Laerm;31671;48.092;11.842;2023-04-09T05:14:28;28.94;27.57;33.08;;
45964;Laerm;31671;48.092;11.842;2023-04-09T05:16:53;28.79;27.60;30.02;;
45964;Laerm;31671;48.092;11.842;2023-04-09T05:19:23;28.92;27.52;31.00;;
45964;Laerm;31671;48.092;11.842;2023-04-09T05:21:54;28.98;27.44;40.27;;
45964;Laerm;31671;48.092;11.842;2023-04-09T05:24:21;28.94;27.74;31.13;;
45964;Laerm;31671;48.092;11.842;2023-04-09T05:26:47;28.84;27.49;31.86;;
45964;Laerm;31671;48.092;11.842;2023-04-09T05:29:12;28.85;27.51;33.75;;
45964;Laerm;31671;48.092;11.842;2023-04-09T05:31:38;29.06;27.39;41.15;;
45964;Laerm;31671;48.092;11.842;2023-04-09T05:34:08;29.21;27.70;44.17;;
45964;Laerm;31671;48.092;11.842;2023-04-09T05:36:40;29.03;27.58;33.57;;
45964;Laerm;31671;48.092;11.842;2023-04-09T05:39:06;29.06;27.54;31.96;;
45964;Laerm;31671;48.092;11.842;2023-04-09T05:41:31;29.14;27.71;33.86;;
45964;Laerm;31671;48.092;11.842;2023-04-09T05:44:17;29.24;27.81;36.47;;
45964;Laerm;31671;48.092;11.842;2023-04-09T05:46:43;29.58;27.71;39.03;;
45964;Laerm;31671;48.092;11.842;2023-04-09T05:49:10;29.26;27.70;39.58;;
45964;Laerm;31671;48.092;11.842;2023-04-09T05:51:37;29.16;27.82;33.66;;
45964;Laerm;31671;48.092;11.842;2023-04-09T05:54:03;29.23;27.82;37.50;;
45964;Laerm;31671;48.092;11.842;2023-04-09T05:56:32;29.38;27.68;32.67;;
45964;Laerm;31671;48.092;11.842;2023-04-09T05:58:59;29.36;28.02;44.37;;
45964;Laerm;31671;48.092;11.842;2023-04-09T06:01:24;29.51;27.79;34.71;;
45964;Laerm;31671;48.092;11.842;2023-04-09T06:03:50;29.44;27.91;34.99;;
45964;Laerm;31671;48.092;11.842;2023-04-09T06:06:16;29.21;27.93;32.95;;
45964;Laerm;31671;48.092;11.842;2023-04-09T06:08:41;29.37;27.82;44.47;;
45964;Laerm;31671;48.092;11.842;2023-04-09T06:11:08;29.43;28.16;43.76;;
45964;Laerm;31671;48.092;11.842;2023-04-09T06:13:34;29.30;28.07;30.45;;
45964;Laerm;31671;48.092;11.842;2023-04-09T06:16:04;29.32;27.83;34.85;;
45964;Laerm;31671;48.092;11.842;2023-04-09T06:18:30;29.51;27.86;37.05;;
45964;Laerm;31671;48.092;11.842;2023-04-09T06:23:27;29.55;28.07;37.81;;
45964;Laerm;31671;48.092;11.842;2023-04-09T06:25:53;29.64;28.23;34.94;;
45964;Laerm;31671;48.092;11.842;2023-04-09T06:28:18;29.61;28.20;32.82;;
45964;Laerm;31671;48.092;11.842;2023-04-09T06:30:44;29.83;28.26;33.30;;
45964;Laerm;31671;48.092;11.842;2023-04-09T06:33:10;29.72;28.31;36.16;;
45964;Laerm;31671;48.092;11.842;2023-04-09T06:35:35;29.57;28.04;34.81;;
45964;Laerm;31671;48.092;11.842;2023-04-09T06:38:01;29.67;28.35;34.27;;
45964;Laerm;31671;48.092;11.842;2023-04-09T06:40:27;29.73;28.31;34.76;;
45964;Laerm;31671;48.092;11.842;2023-04-09T06:42:52;29.73;28.26;32.65;;
45964;Laerm;31671;48.092;11.842;2023-04-09T06:45:27;29.77;28.26;32.40;;
45964;Laerm;31671;48.092;11.842;2023-04-09T06:47:53;29.88;28.29;33.31;;
45964;Laerm;31671;48.092;11.842;2023-04-09T06:50:18;29.78;28.51;32.91;;
45964;Laerm;31671;48.092;11.842;2023-04-09T06:52:44;29.98;28.55;33.38;;
45964;Laerm;31671;48.092;11.842;2023-04-09T06:55:10;30.02;28.58;32.99;;
45964;Laerm;31671;48.092;11.842;2023-04-09T06:57:35;30.07;28.50;32.48;;
45964;Laerm;31671;48.092;11.842;2023-04-09T07:00:01;30.05;28.41;39.66;;
45964;Laerm;31671;48.092;11.842;2023-04-09T07:02:26;29.82;28.43;34.85;;
45964;Laerm;31671;48.092;11.842;2023-04-09T07:04:52;29.64;28.21;32.61;;
45964;Laerm;31671;48.092;11.842;2023-04-09T07:07:18;29.56;28.07;33.33;;
45964;Laerm;31671;48.092;11.842;2023-04-09T07:09:43;29.74;28.17;34.16;;
45964;Laerm;31671;48.092;11.842;2023-04-09T07:12:09;29.41;28.16;32.35;;
45964;Laerm;31671;48.092;11.842;2023-04-09T07:14:35;30.05;28.14;39.02;;
45964;Laerm;31671;48.092;11.842;2023-04-09T07:17:00;30.23;28.10;44.34;;
45964;Laerm;31671;48.092;11.842;2023-04-09T07:19:26;29.70;28.13;36.60;;
45964;Laerm;31671;48.092;11.842;2023-04-09T07:21:52;29.71;27.80;36.60;;
45964;Laerm;31671;48.092;11.842;2023-04-09T07:24:17;29.50;27.90;38.92;;
45964;Laerm;31671;48.092;11.842;2023-04-09T07:26:43;29.69;28.04;36.20;;
45964;Laerm;31671;48.092;11.842;2023-04-09T07:29:09;29.58;28.21;34.87;;
45964;Laerm;31671;48.092;11.842;2023-04-09T07:31:34;29.56;28.19;33.40;;
45964;Laerm;31671;48.092;11.842;2023-04-09T07:34:00;29.59;28.25;33.28;;
45964;Laerm;31671;48.092;11.842;2023-04-09T07:36:26;29.63;28.41;32.53;;
45964;Laerm;31671;48.092;11.842;2023-04-09T07:38:52;29.80;28.33;34.06;;
45964;Laerm;31671;48.092;11.842;2023-04-09T07:41:17;30.01;28.40;34.90;;
45964;Laerm;31671;48.092;11.842;2023-04-09T07:43:43;30.38;28.76;41.30;;
45964;Laerm;31671;48.092;11.842;2023-04-09T07:46:09;30.18;28.65;34.89;;
45964;Laerm;31671;48.092;11.842;2023-04-09T07:48:34;30.35;28.97;33.03;;
45964;Laerm;31671;48.092;11.842;2023-04-09T07:51:00;30.85;29.24;41.75;;
45964;Laerm;31671;48.092;11.842;2023-04-09T07:53:26;36.40;29.28;56.43;;
45964;Laerm;31671;48.092;11.842;2023-04-09T07:55:51;31.98;29.05;48.43;;
45964;Laerm;31671;48.092;11.842;2023-04-09T07:58:17;31.08;29.18;46.85;;
45964;Laerm;31671;48.092;11.842;2023-04-09T08:00:43;31.10;29.24;43.19;;
45964;Laerm;31671;48.092;11.842;2023-04-09T08:03:08;30.51;29.30;32.42;;
45964;Laerm;31671;48.092;11.842;2023-04-09T08:05:34;30.45;28.88;35.66;;
45964;Laerm;31671;48.092;11.842;2023-04-09T08:08:00;31.15;28.74;46.57;;
45964;Laerm;31671;48.092;11.842;2023-04-09T08:10:25;30.13;28.72;34.03;;
45964;Laerm;31671;48.092;11.842;2023-04-09T08:12:51;30.01;28.66;33.70;;
45964;Laerm;31671;48.092;11.842;2023-04-09T08:15:17;29.97;28.36;34.94;;
45964;Laerm;31671;48.092;11.842;2023-04-09T08:17:42;29.80;28.51;35.41;;
45964;Laerm;31671;48.092;11.842;2023-04-09T08:20:08;29.79;28.31;34.92;;
45964;Laerm;31671;48.092;11.842;2023-04-09T08:22:34;30.49;28.39;41.42;;
45964;Laerm;31671;48.092;11.842;2023-04-09T08:25:00;30.35;28.80;39.05;;
45964;Laerm;31671;48.092;11.842;2023-04-09T08:27:25;30.57;28.95;39.21;;
45964;Laerm;31671;48.092;11.842;2023-04-09T08:29:51;30.54;28.89;34.60;;
45964;Laerm;31671;48.092;11.842;2023-04-09T08:32:17;31.10;29.12;37.61;;
45964;Laerm;31671;48.092;11.842;2023-04-09T08:34:42;30.96;29.32;37.63;;
45964;Laerm;31671;48.092;11.842;2023-04-09T08:37:08;31.23;29.26;41.85;;
45964;Laerm;31671;48.092;11.842;2023-04-09T08:39:34;31.06;29.52;48.00;;
45964;Laerm;31671;48.092;11.842;2023-04-09T08:42:00;30.77;29.41;36.67;;
45964;Laerm;31671;48.092;11.842;2023-04-09T08:44:25;30.74;29.29;32.73;;
45964;Laerm;31671;48.092;11.842;2023-04-09T08:46:51;30.60;29.24;33.42;;
45964;Laerm;31671;48.092;11.842;2023-04-09T08:49:17;32.79;29.06;49.85;;
45964;Laerm;31671;48.092;11.842;2023-04-09T08:51:51;31.17;29.29;44.98;;
45964;Laerm;31671;48.092;11.842;2023-04-09T08:54:17;30.69;29.22;37.58;;
45964;Laerm;31671;48.092;11.842;2023-04-09T08:56:43;30.51;29.19;37.84;;
45964;Laerm;31671;48.092;11.842;2023-04-09T08:59:09;32.96;28.97;51.53;;
45964;Laerm;31671;48.092;11.842;2023-04-09T09:01:34;30.98;28.58;46.71;;
45964;Laerm;31671;48.092;11.842;2023-04-09T09:04:03;30.14;28.72;38.64;;
45964;Laerm;31671;48.092;11.842;2023-04-09T09:06:30;30.03;28.60;37.78;;
45964;Laerm;31671;48.092;11.842;2023-04-09T09:09:06;30.07;28.63;34.90;;
45964;Laerm;31671;48.092;11.842;2023-04-09T09:11:33;30.18;28.74;34.98;;
45964;Laerm;31671;48.092;11.842;2023-04-09T09:14:20;30.59;29.16;39.47;;
45964;Laerm;31671;48.092;11.842;2023-04-09T09:17:01;31.11;29.21;50.29;;
45964;Laerm;31671;48.092;11.842;2023-04-09T09:19:28;31.18;29.33;41.65;;
45964;Laerm;31671;48.092;11.842;2023-04-09T09:21:54;31.66;28.92;48.76;;
45964;Laerm;31671;48.092;11.842;2023-04-09T09:24:20;30.64;29.20;36.81;;
45964;Laerm;31671;48.092;11.842;2023-04-09T09:26:46;30.62;29.23;34.49;;
45964;Laerm;31671;48.092;11.842;2023-04-09T09:29:11;31.23;29.15;46.81;;
45964;Laerm;31671;48.092;11.842;2023-04-09T09:31:46;30.83;29.39;38.54;;
45964;Laerm;31671;48.092;11.842;2023-04-09T09:34:12;30.66;29.26;33.54;;
45964;Laerm;31671;48.092;11.842;2023-04-09T09:36:38;30.54;29.24;33.04;;
45964;Laerm;31671;48.092;11.842;2023-04-09T09:39:03;30.74;29.12;34.77;;
45964;Laerm;31671;48.092;11.842;2023-04-09T09:41:29;30.77;29.31;36.78;;
45964;Laerm;31671;48.092;11.842;2023-04-09T09:43:55;31.22;29.33;42.15;;
45964;Laerm;31671;48.092;11.842;2023-04-09T09:46:21;31.75;29.41;49.33;;
45964;Laerm;31671;48.092;11.842;2023-04-09T09:48:46;30.76;29.32;38.09;;
45964;Laerm;31671;48.092;11.842;2023-04-09T09:51:13;31.68;29.40;42.90;;
45964;Laerm;31671;48.092;11.842;2023-04-09T09:53:40;30.53;29.22;35.02;;
45964;Laerm;31671;48.092;11.842;2023-04-09T09:56:11;30.54;29.23;33.03;;
45964;Laerm;31671;48.092;11.842;2023-04-09T09:58:48;31.58;29.17;49.05;;
45964;Laerm;31671;48.092;11.842;2023-04-09T10:01:18;31.38;29.02;48.53;;
45964;Laerm;31671;48.092;11.842;2023-04-09T10:03:45;32.51;29.24;49.21;;
45964;Laerm;31671;48.092;11.842;2023-04-09T10:06:11;34.31;29.31;55.03;;
45964;Laerm;31671;48.092;11.842;2023-04-09T10:08:37;30.76;29.31;37.91;;
45964;Laerm;31671;48.092;11.842;2023-04-09T10:11:05;30.80;29.18;42.61;;
45964;Laerm;31671;48.092;11.842;2023-04-09T10:13:32;38.31;29.52;57.66;;
45964;Laerm;31671;48.092;11.842;2023-04-09T10:15:59;31.51;29.46;47.54;;
45964;Laerm;31671;48.092;11.842;2023-04-09T10:18:25;30.75;29.45;33.89;;
45964;Laerm;31671;48.092;11.842;2023-04-09T10:20:55;31.03;29.32;38.58;;
45964;Laerm;31671;48.092;11.842;2023-04-09T10:23:30;30.76;29.33;32.50;;
45964;Laerm;31671;48.092;11.842;2023-04-09T10:25:57;30.71;29.03;33.39;;
45964;Laerm;31671;48.092;11.842;2023-04-09T10:28:22;30.91;29.21;40.93;;
45964;Laerm;31671;48.092;11.842;2023-04-09T10:30:48;32.43;29.30;52.81;;
45964;Laerm;31671;48.092;11.842;2023-04-09T10:33:21;30.56;29.18;33.23;;
45964;Laerm;31671;48.092;11.842;2023-04-09T10:35:47;30.54;29.12;32.56;;
45964;Laerm;31671;48.092;11.842;2023-04-09T10:38:13;33.85;29.38;51.58;;
45964;Laerm;31671;48.092;11.842;2023-04-09T10:40:49;31.24;29.47;41.99;;
45964;Laerm;31671;48.092;11.842;2023-04-09T10:43:17;30.76;29.32;42.18;;
45964;Laerm;31671;48.092;11.842;2023-04-09T10:45:43;31.15;29.35;39.80;;
45964;Laerm;31671;48.092;11.842;2023-04-09T10:48:12;31.11;29.31;38.79;;
45964;Laerm;31671;48.092;11.842;2023-04-09T10:50:38;31.96;29.20;50.23;;
45964;Laerm;31671;48.092;11.842;2023-04-09T10:53:06;31.95;28.95;50.27;;
45964;Laerm;31671;48.092;11.842;2023-04-09T10:55:38;30.31;28.79;34.06;;
45964;Laerm;31671;48.092;11.842;2023-04-09T10:58:07;30.27;28.85;33.28;;
45964;Laerm;31671;48.092;11.842;2023-04-09T11:00:37;30.35;28.78;37.09;;
45964;Laerm;31671;48.092;11.842;2023-04-09T11:03:12;31.38;28.80;48.42;;
45964;Laerm;31671;48.092;11.842;2023-04-09T11:05:43;32.10;28.73;57.50;;
45964;Laerm;31671;48.092;11.842;2023-04-09T11:08:12;30.30;28.80;36.97;;
45964;Laerm;31671;48.092;11.842;2023-04-09T11:10:42;30.26;28.91;34.99;;
45964;Laerm;31671;48.092;11.842;2023-04-09T11:13:11;30.18;28.67;38.52;;
45964;Laerm;31671;48.092;11.842;2023-04-09T11:15:37;30.17;28.98;38.64;;
45964;Laerm;31671;48.092;11.842;2023-04-09T11:18:03;30.06;28.52;34.77;;
45964;Laerm;31671;48.092;11.842;2023-04-09T11:20:29;30.16;28.75;31.52;;
45964;Laerm;31671;48.092;11.842;2023-04-09T11:22:54;30.14;28.71;31.44;;
45964;Laerm;31671;48.092;11.842;2023-04-09T11:25:21;30.09;28.76;31.24;;
45964;Laerm;31671;48.092;11.842;2023-04-09T11:27:47;30.23;28.72;34.35;;
45964;Laerm;31671;48.092;11.842;2023-04-09T11:30:13;30.34;28.75;35.27;;
45964;Laerm;31671;48.092;11.842;2023-04-09T11:32:39;30.39;28.98;36.17;;
45964;Laerm;31671;48.092;11.842;2023-04-09T11:35:09;43.90;29.30;64.85;;
45964;Laerm;31671;48.092;11.842;2023-04-09T11:37:35;34.58;29.10;56.97;;
45964;Laerm;31671;48.092;11.842;2023-04-09T11:40:01;34.48;29.10;53.76;;
45964;Laerm;31671;48.092;11.842;2023-04-09T11:42:29;33.32;29.22;52.71;;
45964;Laerm;31671;48.092;11.842;2023-04-09T11:44:55;34.95;28.94;54.54;;
45964;Laerm;31671;48.092;11.842;2023-04-09T11:47:20;32.50;29.14;52.27;;
45964;Laerm;31671;48.092;11.842;2023-04-09T11:49:46;30.37;28.92;39.97;;
45964;Laerm;31671;48.092;11.842;2023-04-09T11:52:12;30.42;29.10;38.83;;
45964;Laerm;31671;48.092;11.842;2023-04-09T11:54:38;30.67;28.92;41.62;;
45964;Laerm;31671;48.092;11.842;2023-04-09T11:57:04;32.21;29.00;49.52;;
45964;Laerm;31671;48.092;11.842;2023-04-09T11:59:30;30.99;28.74;47.87;;
45964;Laerm;31671;48.092;11.842;2023-04-09T12:01:58;30.23;28.79;44.98;;
45964;Laerm;31671;48.092;11.842;2023-04-09T12:04:24;30.36;28.72;35.00;;
45964;Laerm;31671;48.092;11.842;2023-04-09T12:06:50;31.70;28.98;44.35;;
45964;Laerm;31671;48.092;11.842;2023-04-09T12:09:20;30.48;29.02;36.26;;
45964;Laerm;31671;48.092;11.842;2023-04-09T12:11:46;30.53;29.23;35.62;;
45964;Laerm;31671;48.092;11.842;2023-04-09T12:14:12;30.56;29.28;34.80;;
45964;Laerm;31671;48.092;11.842;2023-04-09T12:16:38;30.78;29.50;34.39;;
45964;Laerm;31671;48.092;11.842;2023-04-09T12:19:07;30.68;28.97;33.77;;
45964;Laerm;31671;48.092;11.842;2023-04-09T12:24:10;30.89;29.34;38.52;;
45964;Laerm;31671;48.092;11.842;2023-04-09T12:26:36;30.48;29.06;33.19;;
45964;Laerm;31671;48.092;11.842;2023-04-09T12:29:02;30.55;29.15;33.25;;
45964;Laerm;31671;48.092;11.842;2023-04-09T12:31:27;30.60;29.28;35.64;;
45964;Laerm;31671;48.092;11.842;2023-04-09T12:33:53;31.11;29.29;45.79;;
45964;Laerm;31671;48.092;11.842;2023-04-09T12:36:19;30.42;29.06;34.70;;
45964;Laerm;31671;48.092;11.842;2023-04-09T12:38:45;31.27;28.84;45.91;;
45964;Laerm;31671;48.092;11.842;2023-04-09T12:41:10;32.74;28.79;47.64;;
45964;Laerm;31671;48.092;11.842;2023-04-09T12:43:36;30.58;29.11;37.72;;
45964;Laerm;31671;48.092;11.842;2023-04-09T12:46:02;30.49;29.05;35.31;;
45964;Laerm;31671;48.092;11.842;2023-04-09T12:48:27;33.19;29.06;50.65;;
45964;Laerm;31671;48.092;11.842;2023-04-09T12:50:53;30.68;29.21;36.74;;
45964;Laerm;31671;48.092;11.842;2023-04-09T12:53:19;30.95;29.42;38.33;;
45964;Laerm;31671;48.092;11.842;2023-04-09T12:55:44;30.72;29.25;33.75;;
45964;Laerm;31671;48.092;11.842;2023-04-09T12:58:10;30.89;29.23;42.73;;
45964;Laerm;31671;48.092;11.842;2023-04-09T13:00:36;31.48;29.26;48.27;;
45964;Laerm;31671;48.092;11.842;2023-04-09T13:03:01;30.78;29.27;40.90;;
45964;Laerm;31671;48.092;11.842;2023-04-09T13:05:27;32.47;29.34;50.97;;
45964;Laerm;31671;48.092;11.842;2023-04-09T13:07:53;30.93;29.07;40.93;;
45964;Laerm;31671;48.092;11.842;2023-04-09T13:10:18;30.45;29.16;31.95;;
45964;Laerm;31671;48.092;11.842;2023-04-09T13:12:44;30.53;29.00;40.42;;
45964;Laerm;31671;48.092;11.842;2023-04-09T13:15:10;30.44;28.55;31.81;;
45964;Laerm;31671;48.092;11.842;2023-04-09T13:17:35;30.48;29.21;35.15;;
45964;Laerm;31671;48.092;11.842;2023-04-09T13:20:01;30.47;28.90;31.76;;
45964;Laerm;31671;48.092;11.842;2023-04-09T13:22:27;30.44;29.27;31.97;;
45964;Laerm;31671;48.092;11.842;2023-04-09T13:24:52;30.42;29.02;32.40;;
45964;Laerm;31671;48.092;11.842;2023-04-09T13:27:18;30.53;29.12;36.64;;
45964;Laerm;31671;48.092;11.842;2023-04-09T13:29:44;30.63;29.25;35.19;;
45964;Laerm;31671;48.092;11.842;2023-04-09T13:32:10;32.36;29.39;54.33;;
45964;Laerm;31671;48.092;11.842;2023-04-09T13:34:35;33.60;29.45;49.35;;
45964;Laerm;31671;48.092;11.842;2023-04-09T13:37:01;36.45;29.18;54.99;;
45964;Laerm;31671;48.092;11.842;2023-04-09T13:39:27;30.80;29.38;38.48;;
45964;Laerm;31671;48.092;11.842;2023-04-09T13:41:53;30.72;29.32;37.70;;
45964;Laerm;31671;48.092;11.842;2023-04-09T13:44:18;31.30;28.81;48.30;;
45964;Laerm;31671;48.092;11.842;2023-04-09T13:46:44;32.66;28.75;51.32;;